sensor_id;sensor_type;location;lat;lon;timestamp;pressure;altitude;pressure_sealevel;temperature;humidity
45071;BME280;30836;48.906;9.140;2024-03-23T00:53:07;978.66;;;18.75;37.27
45071;BME280;30836;48.906;9.140;2024-03-23T00:54:07;978.60;;;18.77;37.22
45071;BME280;30836;48.906;9.140;2024-03-23T00:55:07;978.58;;;18.81;37.13
45071;BME280;30836;48.906;9.140;2024-03-23T00:56:08;978.58;;;18.85;37.06
45071;BME280;30836;48.906;9.140;2024-03-23T00:57:08;978.56;;;18.89;37.00
45071;BME280;30836;48.906;9.140;2024-03-23T00:58:09;978.58;;;18.94;36.95
45071;BME280;30836;48.906;9.140;2024-03-23T00:59:09;978.58;;;18.98;36.92
45071;BME280;30836;48.906;9.140;2024-03-23T01:00:10;978.58;;;19.02;36.83
45071;BME280;30836;48.906;9.140;2024-03-23T01:01:11;978.56;;;19.04;36.86
45071;BME280;30836;48.906;9.140;2024-03-23T01:02:11;978.58;;;19.03;36.97
45071;BME280;30836;48.906;9.140;2024-03-23T01:03:11;978.54;;;19.00;36.96
45071;BME280;30836;48.906;9.140;2024-03-23T01:04:12;978.56;;;18.97;37.03
45071;BME280;30836;48.906;9.140;2024-03-23T01:05:12;978.51;;;18.94;37.10
45071;BME280;30836;48.906;9.140;2024-03-23T01:06:13;978.53;;;18.92;37.14
45071;BME280;30836;48.906;9.140;2024-03-23T01:07:13;978.51;;;18.91;37.09
45071;BME280;30836;48.906;9.140;2024-03-23T01:08:14;978.47;;;18.91;37.21
45071;BME280;30836;48.906;9.140;2024-03-23T01:09:15;978.45;;;18.90;37.16
45071;BME280;30836;48.906;9.140;2024-03-23T01:10:15;978.45;;;18.88;37.32
45071;BME280;30836;48.906;9.140;2024-03-23T01:11:15;978.41;;;18.83;37.37
45071;BME280;30836;48.906;9.140;2024-03-23T01:12:16;978.39;;;18.79;37.46
45071;BME280;30836;48.906;9.140;2024-03-23T01:13:16;978.39;;;18.76;37.51
45071;BME280;30836;48.906;9.140;2024-03-23T01:14:17;978.37;;;18.75;37.55
45071;BME280;30836;48.906;9.140;2024-03-23T01:15:17;978.33;;;18.73;37.58
45071;BME280;30836;48.906;9.140;2024-03-23T01:16:18;978.29;;;18.70;37.59
45071;BME280;30836;48.906;9.140;2024-03-23T01:17:18;978.27;;;18.70;37.63
45071;BME280;30836;48.906;9.140;2024-03-23T01:18:19;978.25;;;18.69;37.78
45071;BME280;30836;48.906;9.140;2024-03-23T01:19:20;978.21;;;18.68;37.62
45071;BME280;30836;48.906;9.140;2024-03-23T01:20:21;978.19;;;18.70;37.59
45071;BME280;30836;48.906;9.140;2024-03-23T01:21:21;978.15;;;18.71;37.77
45071;BME280;30836;48.906;9.140;2024-03-23T01:22:21;978.15;;;18.68;37.82
45071;BME280;30836;48.906;9.140;2024-03-23T01:23:22;978.11;;;18.67;37.88
45071;BME280;30836;48.906;9.140;2024-03-23T01:24:22;978.13;;;18.62;38.00
45071;BME280;30836;48.906;9.140;2024-03-23T01:25:23;978.13;;;18.57;38.07
45071;BME280;30836;48.906;9.140;2024-03-23T01:26:23;978.13;;;18.57;37.99
45071;BME280;30836;48.906;9.140;2024-03-23T01:27:24;978.11;;;18.55;38.21
45071;BME280;30836;48.906;9.140;2024-03-23T01:28:24;978.09;;;18.46;38.52
45071;BME280;30836;48.906;9.140;2024-03-23T01:29:24;978.07;;;18.38;38.49
45071;BME280;30836;48.906;9.140;2024-03-23T01:30:25;978.07;;;18.34;38.66
45071;BME280;30836;48.906;9.140;2024-03-23T01:31:25;978.03;;;18.29;38.70
45071;BME280;30836;48.906;9.140;2024-03-23T01:32:26;978.07;;;18.21;39.10
45071;BME280;30836;48.906;9.140;2024-03-23T01:33:26;978.03;;;18.12;39.11
45071;BME280;30836;48.906;9.140;2024-03-23T01:34:26;978.03;;;18.09;39.06
45071;BME280;30836;48.906;9.140;2024-03-23T01:35:27;978.03;;;18.08;39.12
45071;BME280;30836;48.906;9.140;2024-03-23T01:36:27;977.99;;;18.07;39.22
45071;BME280;30836;48.906;9.140;2024-03-23T01:37:28;977.94;;;18.02;39.44
45071;BME280;30836;48.906;9.140;2024-03-23T01:38:28;977.92;;;17.96;39.57
45071;BME280;30836;48.906;9.140;2024-03-23T01:39:29;977.88;;;17.90;39.63
45071;BME280;30836;48.906;9.140;2024-03-23T01:40:29;977.88;;;17.89;39.56
45071;BME280;30836;48.906;9.140;2024-03-23T01:41:29;977.84;;;17.92;39.41
45071;BME280;30836;48.906;9.140;2024-03-23T01:42:30;977.88;;;17.98;39.38
45071;BME280;30836;48.906;9.140;2024-03-23T01:43:30;977.84;;;18.03;39.33
45071;BME280;30836;48.906;9.140;2024-03-23T01:44:31;977.82;;;18.08;39.31
45071;BME280;30836;48.906;9.140;2024-03-23T01:45:31;977.80;;;18.07;39.42
45071;BME280;30836;48.906;9.140;2024-03-23T01:46:32;977.78;;;18.07;39.34
45071;BME280;30836;48.906;9.140;2024-03-23T01:47:32;977.80;;;18.08;39.42
45071;BME280;30836;48.906;9.140;2024-03-23T01:48:33;977.78;;;18.07;39.49
45071;BME280;30836;48.906;9.140;2024-03-23T01:49:33;977.76;;;18.07;39.50
45071;BME280;30836;48.906;9.140;2024-03-23T01:50:35;977.78;;;18.11;39.44
45071;BME280;30836;48.906;9.140;2024-03-23T01:51:35;977.76;;;18.16;39.30
45071;BME280;30836;48.906;9.140;2024-03-23T01:52:37;977.70;;;18.22;39.22
45071;BME280;30836;48.906;9.140;2024-03-23T01:53:37;977.72;;;18.27;39.12
45071;BME280;30836;48.906;9.140;2024-03-23T01:54:38;977.74;;;18.30;39.17
45071;BME280;30836;48.906;9.140;2024-03-23T01:55:39;977.74;;;18.29;39.27
45071;BME280;30836;48.906;9.140;2024-03-23T01:56:39;977.70;;;18.24;39.59
45071;BME280;30836;48.906;9.140;2024-03-23T01:57:40;977.68;;;18.17;39.66
45071;BME280;30836;48.906;9.140;2024-03-23T01:58:40;977.64;;;18.12;39.72
45071;BME280;30836;48.906;9.140;2024-03-23T01:59:41;977.64;;;18.08;39.92
45071;BME280;30836;48.906;9.140;2024-03-23T02:00:41;977.62;;;18.06;39.85
45071;BME280;30836;48.906;9.140;2024-03-23T02:01:41;977.62;;;18.05;40.02
45071;BME280;30836;48.906;9.140;2024-03-23T02:02:43;977.58;;;18.04;39.99
45071;BME280;30836;48.906;9.140;2024-03-23T02:03:46;977.58;;;18.09;39.72
45071;BME280;30836;48.906;9.140;2024-03-23T02:04:47;977.56;;;18.16;39.71
45071;BME280;30836;48.906;9.140;2024-03-23T02:05:47;977.52;;;18.19;39.74
45071;BME280;30836;48.906;9.140;2024-03-23T02:06:48;977.51;;;18.19;39.83
45071;BME280;30836;48.906;9.140;2024-03-23T02:07:48;977.49;;;18.21;39.70
45071;BME280;30836;48.906;9.140;2024-03-23T02:08:49;977.54;;;18.22;39.83
45071;BME280;30836;48.906;9.140;2024-03-23T02:09:53;977.56;;;18.20;39.90
45071;BME280;30836;48.906;9.140;2024-03-23T02:10:54;977.58;;;18.17;39.99
45071;BME280;30836;48.906;9.140;2024-03-23T02:11:55;977.58;;;18.17;40.04
45071;BME280;30836;48.906;9.140;2024-03-23T02:12:55;977.58;;;18.18;39.92
45071;BME280;30836;48.906;9.140;2024-03-23T02:13:56;977.54;;;18.21;40.02
45071;BME280;30836;48.906;9.140;2024-03-23T02:14:56;977.58;;;18.21;39.94
45071;BME280;30836;48.906;9.140;2024-03-23T02:15:56;977.56;;;18.22;39.94
45071;BME280;30836;48.906;9.140;2024-03-23T02:16:57;977.58;;;18.23;40.00
45071;BME280;30836;48.906;9.140;2024-03-23T02:17:58;977.51;;;18.18;40.29
45071;BME280;30836;48.906;9.140;2024-03-23T02:18:58;977.49;;;18.11;40.39
45071;BME280;30836;48.906;9.140;2024-03-23T02:19:59;977.51;;;18.09;40.31
45071;BME280;30836;48.906;9.140;2024-03-23T02:21:00;977.47;;;18.12;40.26
45071;BME280;30836;48.906;9.140;2024-03-23T02:22:00;977.47;;;18.14;40.19
45071;BME280;30836;48.906;9.140;2024-03-23T02:23:01;977.43;;;18.17;40.19
45071;BME280;30836;48.906;9.140;2024-03-23T02:24:02;977.47;;;18.20;40.16
45071;BME280;30836;48.906;9.140;2024-03-23T02:25:03;977.47;;;18.21;40.23
45071;BME280;30836;48.906;9.140;2024-03-23T02:26:04;977.41;;;18.23;40.15
45071;BME280;30836;48.906;9.140;2024-03-23T02:27:05;977.43;;;18.23;40.18
45071;BME280;30836;48.906;9.140;2024-03-23T02:28:05;977.41;;;18.21;40.23
45071;BME280;30836;48.906;9.140;2024-03-23T02:29:06;977.37;;;18.20;40.36
45071;BME280;30836;48.906;9.140;2024-03-23T02:30:06;977.35;;;18.17;40.56
45071;BME280;30836;48.906;9.140;2024-03-23T02:31:07;977.37;;;18.14;40.43
45071;BME280;30836;48.906;9.140;2024-03-23T02:32:08;977.35;;;18.10;40.63
45071;BME280;30836;48.906;9.140;2024-03-23T02:33:08;977.35;;;18.05;40.60
45071;BME280;30836;48.906;9.140;2024-03-23T02:34:09;977.37;;;18.06;40.47
45071;BME280;30836;48.906;9.140;2024-03-23T02:35:09;977.39;;;18.10;40.39
45071;BME280;30836;48.906;9.140;2024-03-23T02:36:10;977.37;;;18.15;40.30
45071;BME280;30836;48.906;9.140;2024-03-23T02:37:13;977.33;;;18.21;40.24
45071;BME280;30836;48.906;9.140;2024-03-23T02:38:13;977.33;;;18.27;40.05
45071;BME280;30836;48.906;9.140;2024-03-23T02:38:23;977.31;;;18.34;40.03
45071;BME280;30836;48.906;9.140;2024-03-23T02:39:24;977.25;;;18.37;40.00
45071;BME280;30836;48.906;9.140;2024-03-23T02:40:24;977.23;;;18.40;39.86
45071;BME280;30836;48.906;9.140;2024-03-23T02:41:25;977.15;;;18.41;39.89
45071;BME280;30836;48.906;9.140;2024-03-23T02:42:25;977.17;;;18.40;39.84
45071;BME280;30836;48.906;9.140;2024-03-23T02:43:25;977.17;;;18.41;39.83
45071;BME280;30836;48.906;9.140;2024-03-23T02:44:26;977.19;;;18.41;39.83
45071;BME280;30836;48.906;9.140;2024-03-23T02:45:26;977.23;;;18.41;39.85
45071;BME280;30836;48.906;9.140;2024-03-23T02:46:27;977.23;;;18.36;40.12
45071;BME280;30836;48.906;9.140;2024-03-23T02:47:27;977.23;;;18.28;40.21
45071;BME280;30836;48.906;9.140;2024-03-23T02:48:28;977.19;;;18.22;40.62
45071;BME280;30836;48.906;9.140;2024-03-23T02:49:28;977.25;;;18.14;40.49
45071;BME280;30836;48.906;9.140;2024-03-23T02:50:28;977.25;;;18.14;40.44
45071;BME280;30836;48.906;9.140;2024-03-23T02:51:29;977.25;;;18.13;40.61
45071;BME280;30836;48.906;9.140;2024-03-23T02:52:30;977.29;;;18.11;40.62
45071;BME280;30836;48.906;9.140;2024-03-23T02:53:30;977.33;;;18.09;40.65
45071;BME280;30836;48.906;9.140;2024-03-23T02:54:31;977.37;;;18.05;40.86
45071;BME280;30836;48.906;9.140;2024-03-23T02:55:31;977.39;;;17.97;41.02
45071;BME280;30836;48.906;9.140;2024-03-23T02:56:32;977.39;;;17.87;41.38
45071;BME280;30836;48.906;9.140;2024-03-23T02:57:33;977.41;;;17.79;41.57
45071;BME280;30836;48.906;9.140;2024-03-23T02:58:33;977.43;;;17.70;41.83
45071;BME280;30836;48.906;9.140;2024-03-23T02:59:33;977.45;;;17.52;42.72
45071;BME280;30836;48.906;9.140;2024-03-23T03:00:34;977.51;;;17.23;43.48
45071;BME280;30836;48.906;9.140;2024-03-23T03:01:34;977.49;;;17.00;43.65
45071;BME280;30836;48.906;9.140;2024-03-23T03:02:35;977.41;;;16.89;43.69
45071;BME280;30836;48.906;9.140;2024-03-23T03:03:35;977.37;;;16.88;43.55
45071;BME280;30836;48.906;9.140;2024-03-23T03:04:35;977.37;;;16.91;43.42
45071;BME280;30836;48.906;9.140;2024-03-23T03:05:36;977.33;;;16.98;43.20
45071;BME280;30836;48.906;9.140;2024-03-23T03:06:36;977.35;;;17.04;43.08
45071;BME280;30836;48.906;9.140;2024-03-23T03:07:37;977.33;;;17.04;43.19
45071;BME280;30836;48.906;9.140;2024-03-23T03:08:37;977.27;;;17.08;43.16
45071;BME280;30836;48.906;9.140;2024-03-23T03:09:38;977.23;;;17.15;42.83
45071;BME280;30836;48.906;9.140;2024-03-23T03:10:38;977.23;;;17.26;42.60
45071;BME280;30836;48.906;9.140;2024-03-23T03:11:39;977.25;;;17.37;42.40
45071;BME280;30836;48.906;9.140;2024-03-23T03:12:39;977.27;;;17.46;42.25
45071;BME280;30836;48.906;9.140;2024-03-23T03:13:40;977.21;;;17.53;42.18
45071;BME280;30836;48.906;9.140;2024-03-23T03:14:40;977.19;;;17.60;41.97
45071;BME280;30836;48.906;9.140;2024-03-23T03:15:41;977.15;;;17.68;41.79
45071;BME280;30836;48.906;9.140;2024-03-23T03:16:43;977.13;;;17.77;41.61
45071;BME280;30836;48.906;9.140;2024-03-23T03:17:44;977.07;;;17.85;41.50
45071;BME280;30836;48.906;9.140;2024-03-23T03:18:45;977.03;;;17.91;41.40
45071;BME280;30836;48.906;9.140;2024-03-23T03:19:45;977.01;;;17.95;41.44
45071;BME280;30836;48.906;9.140;2024-03-23T03:20:45;977.03;;;17.98;41.30
45071;BME280;30836;48.906;9.140;2024-03-23T03:21:46;977.03;;;18.01;41.21
45071;BME280;30836;48.906;9.140;2024-03-23T03:22:46;977.01;;;18.03;41.21
45071;BME280;30836;48.906;9.140;2024-03-23T03:23:47;977.07;;;18.03;41.22
45071;BME280;30836;48.906;9.140;2024-03-23T03:24:47;977.11;;;18.02;41.34
45071;BME280;30836;48.906;9.140;2024-03-23T03:25:47;977.09;;;18.00;41.34
45071;BME280;30836;48.906;9.140;2024-03-23T03:26:48;977.11;;;17.95;41.56
45071;BME280;30836;48.906;9.140;2024-03-23T03:27:48;977.11;;;17.90;41.54
45071;BME280;30836;48.906;9.140;2024-03-23T03:28:50;977.07;;;17.90;41.54
45071;BME280;30836;48.906;9.140;2024-03-23T03:29:51;977.05;;;17.89;41.59
45071;BME280;30836;48.906;9.140;2024-03-23T03:30:51;977.05;;;17.89;41.64
45071;BME280;30836;48.906;9.140;2024-03-23T03:31:52;977.01;;;17.86;41.85
45071;BME280;30836;48.906;9.140;2024-03-23T03:32:53;977.00;;;17.77;42.10
45071;BME280;30836;48.906;9.140;2024-03-23T03:33:53;977.00;;;17.71;42.09
45071;BME280;30836;48.906;9.140;2024-03-23T03:34:54;977.01;;;17.70;42.04
45071;BME280;30836;48.906;9.140;2024-03-23T03:35:54;977.01;;;17.69;42.09
45071;BME280;30836;48.906;9.140;2024-03-23T03:36:56;977.01;;;17.69;41.99
45071;BME280;30836;48.906;9.140;2024-03-23T03:37:56;977.03;;;17.73;41.91
45071;BME280;30836;48.906;9.140;2024-03-23T03:38:57;977.03;;;17.80;41.78
45071;BME280;30836;48.906;9.140;2024-03-23T03:39:57;977.03;;;17.87;41.63
45071;BME280;30836;48.906;9.140;2024-03-23T03:40:58;977.05;;;17.92;41.65
45071;BME280;30836;48.906;9.140;2024-03-23T03:41:58;977.07;;;17.92;41.84
45071;BME280;30836;48.906;9.140;2024-03-23T03:42:58;977.07;;;17.85;41.97
45071;BME280;30836;48.906;9.140;2024-03-23T03:43:59;977.03;;;17.80;41.99
45071;BME280;30836;48.906;9.140;2024-03-23T03:44:59;977.00;;;17.80;41.94
45071;BME280;30836;48.906;9.140;2024-03-23T03:46:00;977.00;;;17.80;42.03
45071;BME280;30836;48.906;9.140;2024-03-23T03:47:02;976.98;;;17.80;41.98
45071;BME280;30836;48.906;9.140;2024-03-23T03:48:03;976.83;;;17.89;41.61
45071;BME280;30836;48.906;9.140;2024-03-23T03:49:03;976.80;;;18.04;41.24
45071;BME280;30836;48.906;9.140;2024-03-23T03:50:04;976.74;;;18.21;40.93
45071;BME280;30836;48.906;9.140;2024-03-23T03:51:05;976.72;;;18.37;40.59
45071;BME280;30836;48.906;9.140;2024-03-23T03:52:05;976.68;;;18.54;40.27
45071;BME280;30836;48.906;9.140;2024-03-23T03:53:06;976.66;;;18.70;40.00
45071;BME280;30836;48.906;9.140;2024-03-23T03:54:06;976.60;;;18.83;39.79
45071;BME280;30836;48.906;9.140;2024-03-23T03:55:12;976.54;;;18.93;39.62
45071;BME280;30836;48.906;9.140;2024-03-23T03:56:15;976.46;;;19.03;39.52
45071;BME280;30836;48.906;9.140;2024-03-23T03:57:15;976.42;;;19.11;39.31
45071;BME280;30836;48.906;9.140;2024-03-23T03:58:15;976.40;;;19.17;39.20
45071;BME280;30836;48.906;9.140;2024-03-23T03:59:17;976.42;;;19.24;39.06
45071;BME280;30836;48.906;9.140;2024-03-23T04:00:17;976.38;;;19.30;38.98
45071;BME280;30836;48.906;9.140;2024-03-23T04:01:18;976.40;;;19.34;38.90
45071;BME280;30836;48.906;9.140;2024-03-23T04:02:18;976.42;;;19.36;38.92
45071;BME280;30836;48.906;9.140;2024-03-23T04:03:19;976.42;;;19.37;38.92
45071;BME280;30836;48.906;9.140;2024-03-23T04:04:20;976.42;;;19.37;38.96
45071;BME280;30836;48.906;9.140;2024-03-23T04:05:20;976.42;;;19.36;38.99
45071;BME280;30836;48.906;9.140;2024-03-23T04:06:21;976.42;;;19.36;38.96
45071;BME280;30836;48.906;9.140;2024-03-23T04:07:21;976.38;;;19.35;39.07
45071;BME280;30836;48.906;9.140;2024-03-23T04:08:21;976.36;;;19.32;39.10
45071;BME280;30836;48.906;9.140;2024-03-23T04:09:22;976.36;;;19.29;39.20
45071;BME280;30836;48.906;9.140;2024-03-23T04:10:22;976.32;;;19.25;39.27
45071;BME280;30836;48.906;9.140;2024-03-23T04:11:23;976.34;;;19.20;39.30
45071;BME280;30836;48.906;9.140;2024-03-23T04:12:23;976.36;;;19.14;39.52
45071;BME280;30836;48.906;9.140;2024-03-23T04:13:24;976.38;;;19.09;39.67
45071;BME280;30836;48.906;9.140;2024-03-23T04:14:24;976.40;;;19.05;39.74
45071;BME280;30836;48.906;9.140;2024-03-23T04:15:25;976.42;;;19.00;39.85
45071;BME280;30836;48.906;9.140;2024-03-23T04:16:28;976.42;;;18.95;40.03
45071;BME280;30836;48.906;9.140;2024-03-23T04:17:30;976.46;;;18.90;40.05
45071;BME280;30836;48.906;9.140;2024-03-23T04:18:31;976.50;;;18.88;40.20
45071;BME280;30836;48.906;9.140;2024-03-23T04:19:32;976.54;;;18.85;40.38
45071;BME280;30836;48.906;9.140;2024-03-23T04:20:32;976.56;;;18.86;40.56
45071;BME280;30836;48.906;9.140;2024-03-23T04:21:33;976.60;;;18.84;40.82
45071;BME280;30836;48.906;9.140;2024-03-23T04:22:33;976.70;;;18.73;41.40
45071;BME280;30836;48.906;9.140;2024-03-23T04:23:33;976.72;;;18.47;42.97
45071;BME280;30836;48.906;9.140;2024-03-23T04:24:34;976.83;;;18.16;44.33
45071;BME280;30836;48.906;9.140;2024-03-23T04:25:34;976.83;;;17.88;46.24
45071;BME280;30836;48.906;9.140;2024-03-23T04:27:41;976.83;;;17.51;47.06
45071;BME280;30836;48.906;9.140;2024-03-23T04:28:41;976.85;;;17.49;47.68
45071;BME280;30836;48.906;9.140;2024-03-23T04:29:42;976.83;;;17.43;48.57
45071;BME280;30836;48.906;9.140;2024-03-23T04:30:42;976.83;;;17.31;49.65
45071;BME280;30836;48.906;9.140;2024-03-23T04:31:43;976.89;;;17.15;50.43
45071;BME280;30836;48.906;9.140;2024-03-23T04:32:43;977.00;;;17.02;50.80
45071;BME280;30836;48.906;9.140;2024-03-23T04:33:43;976.89;;;16.95;51.38
45071;BME280;30836;48.906;9.140;2024-03-23T04:34:44;976.89;;;16.91;51.78
45071;BME280;30836;48.906;9.140;2024-03-23T04:35:48;976.89;;;16.86;51.89
45071;BME280;30836;48.906;9.140;2024-03-23T04:36:49;976.89;;;16.83;52.42
45071;BME280;30836;48.906;9.140;2024-03-23T04:37:50;977.03;;;16.79;52.69
45071;BME280;30836;48.906;9.140;2024-03-23T04:38:50;977.00;;;16.78;52.71
45071;BME280;30836;48.906;9.140;2024-03-23T04:39:50;976.87;;;16.82;52.56
45071;BME280;30836;48.906;9.140;2024-03-23T04:41:57;976.83;;;16.90;52.24
45071;BME280;30836;48.906;9.140;2024-03-23T04:42:57;976.80;;;16.87;52.75
45071;BME280;30836;48.906;9.140;2024-03-23T04:43:58;976.83;;;16.83;52.62
45071;BME280;30836;48.906;9.140;2024-03-23T04:44:58;976.82;;;16.84;52.59
45071;BME280;30836;48.906;9.140;2024-03-23T04:45:59;976.82;;;16.86;52.38
45071;BME280;30836;48.906;9.140;2024-03-23T04:47:00;976.78;;;16.95;52.21
45071;BME280;30836;48.906;9.140;2024-03-23T04:48:01;976.80;;;17.00;52.28
45071;BME280;30836;48.906;9.140;2024-03-23T04:49:01;976.85;;;17.01;52.23
45071;BME280;30836;48.906;9.140;2024-03-23T04:50:02;976.87;;;16.99;52.35
45071;BME280;30836;48.906;9.140;2024-03-23T04:51:04;976.85;;;16.97;52.30
45071;BME280;30836;48.906;9.140;2024-03-23T04:52:04;976.85;;;16.95;52.33
45071;BME280;30836;48.906;9.140;2024-03-23T04:53:05;976.83;;;16.98;52.21
45071;BME280;30836;48.906;9.140;2024-03-23T04:54:05;976.89;;;17.10;51.71
45071;BME280;30836;48.906;9.140;2024-03-23T04:55:06;976.85;;;17.19;51.73
45071;BME280;30836;48.906;9.140;2024-03-23T04:56:06;976.85;;;17.21;51.60
45071;BME280;30836;48.906;9.140;2024-03-23T04:57:07;976.85;;;17.25;51.41
45071;BME280;30836;48.906;9.140;2024-03-23T04:58:07;976.89;;;17.23;51.84
45071;BME280;30836;48.906;9.140;2024-03-23T04:59:08;976.98;;;17.10;52.18
45071;BME280;30836;48.906;9.140;2024-03-23T05:00:09;976.89;;;17.02;52.26
45071;BME280;30836;48.906;9.140;2024-03-23T05:01:12;976.89;;;17.02;52.08
45071;BME280;30836;48.906;9.140;2024-03-23T05:02:14;976.87;;;17.07;52.17
45071;BME280;30836;48.906;9.140;2024-03-23T05:03:15;976.87;;;17.02;52.47
45071;BME280;30836;48.906;9.140;2024-03-23T05:04:15;976.87;;;16.88;52.55
45071;BME280;30836;48.906;9.140;2024-03-23T05:05:16;976.85;;;16.74;52.74
45071;BME280;30836;48.906;9.140;2024-03-23T05:06:16;976.85;;;16.51;53.43
45071;BME280;30836;48.906;9.140;2024-03-23T05:07:16;976.98;;;16.33;53.34
45071;BME280;30836;48.906;9.140;2024-03-23T05:08:17;976.87;;;16.23;53.45
45071;BME280;30836;48.906;9.140;2024-03-23T05:09:17;976.82;;;16.08;53.72
45071;BME280;30836;48.906;9.140;2024-03-23T05:10:18;976.76;;;16.01;53.53
45071;BME280;30836;48.906;9.140;2024-03-23T05:11:18;976.76;;;16.01;53.40
45071;BME280;30836;48.906;9.140;2024-03-23T05:12:19;976.76;;;15.99;53.54
45071;BME280;30836;48.906;9.140;2024-03-23T05:13:19;976.80;;;16.04;53.10
45071;BME280;30836;48.906;9.140;2024-03-23T05:14:19;976.83;;;16.11;52.94
45071;BME280;30836;48.906;9.140;2024-03-23T05:15:20;976.98;;;16.05;53.46
45071;BME280;30836;48.906;9.140;2024-03-23T05:16:20;977.01;;;15.99;53.49
45071;BME280;30836;48.906;9.140;2024-03-23T05:17:21;977.00;;;15.97;53.62
45071;BME280;30836;48.906;9.140;2024-03-23T05:18:21;976.89;;;16.02;53.43
45071;BME280;30836;48.906;9.140;2024-03-23T05:19:22;976.89;;;16.05;53.46
45071;BME280;30836;48.906;9.140;2024-03-23T05:20:22;976.89;;;15.95;54.22
45071;BME280;30836;48.906;9.140;2024-03-23T05:21:23;977.01;;;15.88;54.03
45071;BME280;30836;48.906;9.140;2024-03-23T05:22:23;977.01;;;15.93;53.75
45071;BME280;30836;48.906;9.140;2024-03-23T05:23:24;976.98;;;16.00;53.48
45071;BME280;30836;48.906;9.140;2024-03-23T05:24:25;977.01;;;16.01;53.87
45071;BME280;30836;48.906;9.140;2024-03-23T05:25:25;976.98;;;15.92;53.81
45071;BME280;30836;48.906;9.140;2024-03-23T05:26:25;977.09;;;15.74;54.27
45071;BME280;30836;48.906;9.140;2024-03-23T05:27:26;977.09;;;15.50;54.90
45071;BME280;30836;48.906;9.140;2024-03-23T05:28:26;977.17;;;15.32;55.15
45071;BME280;30836;48.906;9.140;2024-03-23T05:29:27;977.21;;;15.22;55.17
45071;BME280;30836;48.906;9.140;2024-03-23T05:30:27;977.15;;;15.17;55.31
45071;BME280;30836;48.906;9.140;2024-03-23T05:31:29;977.27;;;15.12;55.18
45071;BME280;30836;48.906;9.140;2024-03-23T05:32:30;977.23;;;15.02;55.72
45071;BME280;30836;48.906;9.140;2024-03-23T05:33:31;977.25;;;14.90;55.98
45071;BME280;30836;48.906;9.140;2024-03-23T05:34:32;977.25;;;14.91;55.43
45071;BME280;30836;48.906;9.140;2024-03-23T05:35:32;977.47;;;14.97;55.34
45071;BME280;30836;48.906;9.140;2024-03-23T05:36:32;977.41;;;14.97;55.48
45071;BME280;30836;48.906;9.140;2024-03-23T05:37:33;977.39;;;14.98;55.38
45071;BME280;30836;48.906;9.140;2024-03-23T05:38:34;977.31;;;14.96;55.90
45071;BME280;30836;48.906;9.140;2024-03-23T05:39:34;977.31;;;14.80;56.52
45071;BME280;30836;48.906;9.140;2024-03-23T05:40:34;977.41;;;14.65;56.75
45071;BME280;30836;48.906;9.140;2024-03-23T05:41:35;977.33;;;14.51;57.13
45071;BME280;30836;48.906;9.140;2024-03-23T05:42:35;977.45;;;14.42;57.17
45071;BME280;30836;48.906;9.140;2024-03-23T05:43:36;977.37;;;14.45;56.84
45071;BME280;30836;48.906;9.140;2024-03-23T05:44:36;977.41;;;14.51;56.60
45071;BME280;30836;48.906;9.140;2024-03-23T05:45:37;977.37;;;14.43;57.08
45071;BME280;30836;48.906;9.140;2024-03-23T05:46:37;977.33;;;14.39;56.97
45071;BME280;30836;48.906;9.140;2024-03-23T05:47:37;977.31;;;14.44;57.12
45071;BME280;30836;48.906;9.140;2024-03-23T05:48:38;977.35;;;14.54;56.24
45071;BME280;30836;48.906;9.140;2024-03-23T05:49:38;977.31;;;14.60;55.95
45071;BME280;30836;48.906;9.140;2024-03-23T05:50:39;977.27;;;14.52;56.36
45071;BME280;30836;48.906;9.140;2024-03-23T05:51:39;977.33;;;14.41;56.26
45071;BME280;30836;48.906;9.140;2024-03-23T05:52:40;977.43;;;14.34;56.42
45071;BME280;30836;48.906;9.140;2024-03-23T05:53:40;977.60;;;14.17;57.11
45071;BME280;30836;48.906;9.140;2024-03-23T05:54:40;977.62;;;14.08;56.92
45071;BME280;30836;48.906;9.140;2024-03-23T05:55:41;977.64;;;14.14;56.54
45071;BME280;30836;48.906;9.140;2024-03-23T05:56:42;977.72;;;14.22;55.90
45071;BME280;30836;48.906;9.140;2024-03-23T05:57:42;977.68;;;14.18;56.37
45071;BME280;30836;48.906;9.140;2024-03-23T05:58:43;977.64;;;14.16;56.23
45071;BME280;30836;48.906;9.140;2024-03-23T05:59:43;977.90;;;14.25;55.32
45071;BME280;30836;48.906;9.140;2024-03-23T06:00:44;977.80;;;14.22;56.03
45071;BME280;30836;48.906;9.140;2024-03-23T06:01:45;977.66;;;14.12;55.98
45071;BME280;30836;48.906;9.140;2024-03-23T06:02:47;977.70;;;14.10;55.61
45071;BME280;30836;48.906;9.140;2024-03-23T06:03:47;977.60;;;14.04;56.21
45071;BME280;30836;48.906;9.140;2024-03-23T06:04:47;977.54;;;13.97;56.29
45071;BME280;30836;48.906;9.140;2024-03-23T06:05:48;977.54;;;14.02;56.08
45071;BME280;30836;48.906;9.140;2024-03-23T06:06:48;977.64;;;14.04;55.90
45071;BME280;30836;48.906;9.140;2024-03-23T06:07:49;977.66;;;13.99;56.09
45071;BME280;30836;48.906;9.140;2024-03-23T06:08:49;977.64;;;14.01;56.06
45071;BME280;30836;48.906;9.140;2024-03-23T06:09:50;977.70;;;14.04;56.01
45071;BME280;30836;48.906;9.140;2024-03-23T06:10:50;977.66;;;14.07;55.99
45071;BME280;30836;48.906;9.140;2024-03-23T06:11:51;977.70;;;14.13;55.63
45071;BME280;30836;48.906;9.140;2024-03-23T06:12:51;977.66;;;14.20;55.16
45071;BME280;30836;48.906;9.140;2024-03-23T06:13:52;977.62;;;14.24;55.34
45071;BME280;30836;48.906;9.140;2024-03-23T06:14:52;977.70;;;14.28;55.13
45071;BME280;30836;48.906;9.140;2024-03-23T06:15:53;977.70;;;14.41;54.69
45071;BME280;30836;48.906;9.140;2024-03-23T06:16:53;977.70;;;14.47;54.84
45071;BME280;30836;48.906;9.140;2024-03-23T06:17:53;977.80;;;14.44;54.93
45071;BME280;30836;48.906;9.140;2024-03-23T06:18:54;977.88;;;14.38;55.13
45071;BME280;30836;48.906;9.140;2024-03-23T06:19:54;977.88;;;14.28;55.25
45071;BME280;30836;48.906;9.140;2024-03-23T06:20:55;977.92;;;14.18;55.49
45071;BME280;30836;48.906;9.140;2024-03-23T06:21:55;977.92;;;14.13;55.47
45071;BME280;30836;48.906;9.140;2024-03-23T06:22:56;977.92;;;14.16;55.62
45071;BME280;30836;48.906;9.140;2024-03-23T06:23:56;977.92;;;14.22;55.33